Time;durP1;ratioP1;P1;durP2;ratioP2;P2;SDS_P1;SDS_P2;PMS_P1;PMS_P2;Temp;Humidity;BMP_temperature;BMP_pressure;BME280_temperature;BME280_humidity;BME280_pressure;Samples;Min_cycle;Max_cycle;Signal;HPM_P1;HPM_P2
2021/04/18 00:00:42;;;;;;;12.67;5.33;;;;;5.20;101895.00;;;;10523524;28;20196;-75
2021/04/18 00:05:43;;;;;;;15.07;4.87;;;;;5.00;101898.00;;;;10539878;28;20220;-75
2021/04/18 00:10:45;;;;;;;12.73;6.17;;;;;5.00;101898.00;;;;10523136;28;20188;-75
2021/04/18 00:15:46;;;;;;;9.53;5.60;;;;;4.90;101895.00;;;;10522845;28;20185;-75
2021/04/18 00:20:48;;;;;;;12.83;5.03;;;;;4.80;101887.00;;;;10505494;28;20284;-75
2021/04/18 00:25:49;;;;;;;11.70;5.77;;;;;4.70;101883.00;;;;10508853;28;20208;-75
2021/04/18 00:31:03;;;;;;;9.77;5.60;;;;;4.60;101882.00;;;;10548438;28;20614;-75
2021/04/18 00:36:06;;;;;;;7.17;5.30;;;;;4.50;101884.00;;;;10563762;28;20296;-75
2021/04/18 00:41:08;;;;;;;13.57;5.70;;;;;4.60;101889.00;;;;10472550;28;20198;-75
2021/04/18 00:46:10;;;;;;;14.23;6.00;;;;;4.50;101884.00;;;;10479345;28;20826;-75
2021/04/18 00:51:13;;;;;;;13.97;5.87;;;;;4.50;101881.00;;;;10480091;28;20194;-75
2021/04/18 00:56:15;;;;;;;14.90;5.90;;;;;4.50;101880.00;;;;10527734;28;20539;-75
2021/04/18 01:01:16;;;;;;;12.10;5.50;;;;;4.50;101874.00;;;;10564114;28;20220;-73
2021/04/18 01:06:18;;;;;;;10.17;6.03;;;;;4.50;101877.00;;;;10562672;28;20959;-73
2021/04/18 01:11:20;;;;;;;12.40;6.17;;;;;4.40;101878.00;;;;10529227;28;20192;-73
2021/04/18 01:16:22;;;;;;;11.43;6.20;;;;;4.30;101888.00;;;;10529179;28;20196;-73
2021/04/18 01:21:24;;;;;;;12.77;5.73;;;;;4.10;101873.00;;;;10581208;28;20192;-73
2021/04/18 01:26:52;;;;;;;13.57;5.93;;;;;4.00;101876.00;;;;10537018;28;20262;-72
2021/04/18 01:31:56;;;;;;;12.30;6.43;;;;;3.90;101856.00;;;;10487616;28;20616;-72
2021/04/18 01:36:58;;;;;;;11.17;6.37;;;;;3.90;101854.00;;;;10521006;28;20201;-72
2021/04/18 01:42:00;;;;;;;14.20;6.43;;;;;3.80;101860.00;;;;10521789;28;20919;-72
2021/04/18 01:47:04;;;;;;;14.90;6.73;;;;;3.70;101852.00;;;;10511454;28;20213;-73
2021/04/18 01:52:07;;;;;;;13.43;6.73;;;;;3.70;101847.00;;;;10528077;28;20227;-73
2021/04/18 01:57:08;;;;;;;16.17;7.83;;;;;3.60;101843.00;;;;10510882;28;20235;-73
2021/04/18 02:02:17;;;;;;;15.17;6.53;;;;;3.50;101847.00;;;;10510811;28;20189;-72
2021/04/18 02:07:27;;;;;;;12.30;6.80;;;;;3.50;101840.00;;;;10527058;28;20213;-72
2021/04/18 02:12:29;;;;;;;15.80;7.07;;;;;3.40;101846.00;;;;10527829;28;20189;-73
2021/04/18 02:17:30;;;;;;;13.17;7.53;;;;;3.40;101844.00;;;;10510176;28;20208;-73
2021/04/18 02:22:33;;;;;;;12.97;7.50;;;;;3.30;101840.00;;;;10510050;28;20551;-73
2021/04/18 02:27:34;;;;;;;15.20;7.40;;;;;3.20;101840.00;;;;10509574;28;20244;-72
2021/04/18 02:32:46;;;;;;;14.43;7.33;;;;;3.20;101844.00;;;;10509643;28;20189;-73
2021/04/18 02:37:49;;;;;;;16.00;7.17;;;;;3.10;101836.00;;;;10509511;28;20189;-72
2021/04/18 02:42:53;;;;;;;13.33;7.87;;;;;3.00;101835.00;;;;10526038;28;20211;-73
2021/04/18 02:47:56;;;;;;;15.87;7.93;;;;;2.90;101838.00;;;;10542494;28;20243;-72
2021/04/18 02:52:59;;;;;;;17.90;9.80;;;;;2.80;101838.00;;;;10508351;28;20235;-72
2021/04/18 02:58:01;;;;;;;14.23;10.80;;;;;2.80;101835.00;;;;10525467;28;20841;-73
2021/04/18 03:03:04;;;;;;;20.67;12.17;;;;;2.80;101834.00;;;;10508823;28;20228;-73
2021/04/18 03:08:07;;;;;;;21.93;13.60;;;;;2.80;101839.00;;;;10525252;28;20227;-72
2021/04/18 03:13:09;;;;;;;22.13;12.77;;;;;2.70;101835.00;;;;10507916;28;20199;-72
2021/04/18 03:18:14;;;;;;;21.77;14.73;;;;;2.70;101846.00;;;;10507750;28;20193;-72
2021/04/18 03:23:16;;;;;;;24.77;15.40;;;;;2.60;101838.00;;;;10491203;28;20193;-73
2021/04/18 03:28:22;;;;;;;22.47;15.13;;;;;2.60;101838.00;;;;10491565;28;20680;-73
2021/04/18 03:33:27;;;;;;;25.00;16.80;;;;;2.50;101841.00;;;;10508375;28;20185;-72
2021/04/18 03:38:38;;;;;;;24.97;16.27;;;;;2.50;101825.00;;;;10491792;28;20325;-72
2021/04/18 03:43:42;;;;;;;23.17;16.10;;;;;2.40;101828.00;;;;10523473;28;20196;-72
2021/04/18 03:48:49;;;;;;;26.70;16.57;;;;;2.40;101837.00;;;;10507905;28;20306;-72
2021/04/18 03:53:52;;;;;;;26.33;16.43;;;;;2.30;101835.00;;;;10527660;28;20632;-72
2021/04/18 03:58:57;;;;;;;29.33;19.10;;;;;2.30;101830.00;;;;10548076;28;20274;-73
2021/04/18 04:04:00;;;;;;;27.00;19.37;;;;;2.30;101841.00;;;;10546760;28;20212;-73
2021/04/18 04:09:07;;;;;;;34.43;22.53;;;;;2.20;101833.00;;;;10532271;28;20208;-73
2021/04/18 04:14:12;;;;;;;32.27;22.23;;;;;2.20;101836.00;;;;10531464;28;20733;-73
2021/04/18 04:19:20;;;;;;;32.77;23.97;;;;;2.20;101840.00;;;;10531585;28;20203;-73
2021/04/18 04:24:39;;;;;;;34.17;24.13;;;;;2.20;101830.00;;;;10572313;28;20219;-73
2021/04/18 04:29:41;;;;;;;36.73;24.90;;;;;2.20;101826.00;;;;10521709;28;20195;-73
2021/04/18 04:34:42;;;;;;;41.27;27.47;;;;;2.10;101835.00;;;;10522428;28;20280;-73
2021/04/18 04:39:44;;;;;;;39.13;26.30;;;;;2.10;101834.00;;;;10488230;28;20196;-73
2021/04/18 04:44:45;;;;;;;33.80;24.13;;;;;2.10;101829.00;;;;10520771;28;20736;-73
2021/04/18 04:49:46;;;;;;;41.90;28.53;;;;;2.10;101840.00;;;;10488197;28;20521;-73
2021/04/18 04:54:47;;;;;;;39.30;26.77;;;;;2.20;101845.00;;;;10504561;28;20667;-72
2021/04/18 04:59:49;;;;;;;39.00;28.07;;;;;2.20;101848.00;;;;10488045;28;20602;-73
2021/04/18 05:04:50;;;;;;;48.17;31.20;;;;;2.30;101839.00;;;;10555239;28;20571;-73
2021/04/18 05:09:51;;;;;;;46.90;31.00;;;;;2.40;101841.00;;;;10521295;28;20212;-73
2021/04/18 05:14:53;;;;;;;42.23;30.40;;;;;2.50;101843.00;;;;10505045;28;20181;-73
2021/04/18 05:19:54;;;;;;;42.07;32.03;;;;;2.70;101845.00;;;;10512460;28;20309;-73
2021/04/18 05:24:55;;;;;;;45.23;33.87;;;;;3.00;101847.00;;;;10528770;28;20208;-72
2021/04/18 05:29:56;;;;;;;41.90;31.27;;;;;3.50;101856.00;;;;10547271;28;20234;-73
2021/04/18 05:34:58;;;;;;;37.50;28.03;;;;;4.00;101861.00;;;;10486876;28;20194;-73
2021/04/18 05:39:59;;;;;;;34.33;25.13;;;;;4.30;101858.00;;;;10487369;28;20202;-73
2021/04/18 05:45:01;;;;;;;42.67;26.53;;;;;4.60;101861.00;;;;10502733;28;20680;-73
2021/04/18 05:50:03;;;;;;;35.67;27.67;;;;;4.90;101870.00;;;;10516478;28;20189;-73
2021/04/18 05:55:07;;;;;;;39.83;25.97;;;;;5.20;101875.00;;;;10544763;28;20197;-73
2021/04/18 06:00:09;;;;;;;28.20;22.60;;;;;5.60;101870.00;;;;10482611;28;20202;-73
2021/04/18 06:05:16;;;;;;;31.70;21.53;;;;;5.80;101870.00;;;;10485228;28;20218;-73
2021/04/18 06:10:18;;;;;;;31.50;22.53;;;;;6.20;101875.00;;;;10468927;28;20315;-73
2021/04/18 06:15:19;;;;;;;31.13;23.33;;;;;6.60;101869.00;;;;10468619;28;20227;-73
2021/04/18 06:20:21;;;;;;;25.17;18.70;;;;;7.00;101876.00;;;;10502335;28;20193;-73
2021/04/18 06:25:22;;;;;;;28.90;18.03;;;;;7.30;101873.00;;;;10518571;28;20269;-73
2021/04/18 06:30:23;;;;;;;24.60;17.77;;;;;7.70;101879.00;;;;10534133;28;20199;-73
2021/04/18 06:35:25;;;;;;;27.70;17.17;;;;;8.00;101883.00;;;;10538789;28;20193;-73
2021/04/18 06:40:27;;;;;;;22.43;15.67;;;;;8.20;101884.00;;;;10518406;28;20546;-74
2021/04/18 06:45:28;;;;;;;22.70;14.93;;;;;8.40;101886.00;;;;10542416;28;20216;-74
2021/04/18 06:50:30;;;;;;;24.67;14.57;;;;;8.60;101895.00;;;;10517409;28;20656;-74
2021/04/18 06:55:31;;;;;;;22.47;15.10;;;;;8.80;101896.00;;;;10501977;28;20189;-74
2021/04/18 07:00:33;;;;;;;24.83;14.60;;;;;9.30;101897.00;;;;10491847;28;20250;-74
2021/04/18 07:05:43;;;;;;;21.37;13.13;;;;;10.00;101890.00;;;;10502586;28;20220;-74
2021/04/18 07:10:45;;;;;;;22.83;12.63;;;;;10.50;101894.00;;;;10489673;28;20201;-74
2021/04/18 07:15:47;;;;;;;19.83;12.97;;;;;10.40;101886.00;;;;10500354;28;20702;-74
2021/04/18 07:20:54;;;;;;;23.33;12.83;;;;;10.50;101885.00;;;;10483628;28;20312;-74
2021/04/18 07:25:57;;;;;;;22.30;13.07;;;;;10.70;101884.00;;;;10532627;28;20212;-74
2021/04/18 07:31:03;;;;;;;22.53;12.57;;;;;10.90;101881.00;;;;10540747;28;20218;-74
2021/04/18 07:36:18;;;;;;;18.57;11.43;;;;;11.10;101887.00;;;;10557386;28;20192;-74
2021/04/18 07:41:22;;;;;;;20.10;9.87;;;;;11.50;101884.00;;;;10507083;28;20197;-74
2021/04/18 07:46:24;;;;;;;17.27;9.30;;;;;11.70;101879.00;;;;10516267;28;20230;-74
2021/04/18 07:51:27;;;;;;;14.63;10.47;;;;;11.80;101871.00;;;;10448629;28;20243;-74
2021/04/18 07:56:28;;;;;;;18.00;9.77;;;;;12.10;101859.00;;;;10507643;28;20200;-74
2021/04/18 08:01:30;;;;;;;17.30;9.23;;;;;12.30;101858.00;;;;10527967;28;20193;-75
2021/04/18 08:06:31;;;;;;;14.83;9.40;;;;;12.90;101850.00;;;;10504580;28;20220;-75
2021/04/18 08:11:33;;;;;;;13.43;8.43;;;;;13.30;101840.00;;;;10539264;28;20804;-75
2021/04/18 08:16:34;;;;;;;13.50;8.03;;;;;13.50;101852.00;;;;10522455;28;20234;-75
2021/04/18 08:21:39;;;;;;;10.53;7.23;;;;;13.90;101831.00;;;;10497194;28;20559;-75
2021/04/18 08:26:58;;;;;;;12.13;6.17;;;;;13.90;101822.00;;;;10491341;28;20657;-75
2021/04/18 08:32:03;;;;;;;9.20;6.00;;;;;14.10;101833.00;;;;10522030;28;20539;-75
2021/04/18 08:37:14;;;;;;;10.23;6.77;;;;;14.40;101830.00;;;;10527680;28;20201;-75
2021/04/18 08:42:34;;;;;;;8.97;6.53;;;;;14.60;101845.00;;;;10512411;28;20213;-75
2021/04/18 08:47:37;;;;;;;12.17;6.93;;;;;14.90;101838.00;;;;10515155;28;20225;-75
2021/04/18 08:52:39;;;;;;;14.37;6.70;;;;;15.30;101838.00;;;;10462090;28;20193;-75
2021/04/18 08:57:40;;;;;;;10.80;6.93;;;;;15.20;101838.00;;;;10531475;28;20199;-75
2021/04/18 09:02:42;;;;;;;10.77;7.00;;;;;15.50;101829.00;;;;10521805;28;20193;-75
2021/04/18 09:07:44;;;;;;;10.30;6.50;;;;;15.50;101821.00;;;;10511544;28;20236;-75
2021/04/18 09:12:46;;;;;;;14.03;6.70;;;;;15.70;101823.00;;;;10497126;28;20518;-75
2021/04/18 09:17:53;;;;;;;9.43;6.70;;;;;16.10;101817.00;;;;10520091;28;20204;-75
2021/04/18 09:23:03;;;;;;;11.70;6.57;;;;;16.70;101813.00;;;;10487050;28;20201;-75
2021/04/18 09:28:11;;;;;;;12.73;7.07;;;;;16.40;101818.00;;;;10478389;28;20691;-75
2021/04/18 09:33:13;;;;;;;14.57;7.73;;;;;16.40;101814.00;;;;10478939;28;20212;-75
2021/04/18 09:38:19;;;;;;;11.80;7.67;;;;;16.90;101813.00;;;;10504060;28;20271;-75
2021/04/18 09:43:23;;;;;;;12.87;7.57;;;;;17.00;101817.00;;;;10478190;28;20644;-75
2021/04/18 09:48:32;;;;;;;14.23;8.55;;;;;17.40;101811.00;;;;10502667;28;20214;-75
2021/04/18 09:53:38;;;;;;;9.80;7.22;;;;;17.80;101805.00;;;;10497874;28;20185;-75
2021/04/18 09:58:42;;;;;;;12.68;8.45;;;;;18.40;101821.00;;;;10537038;28;20200;-75
2021/04/18 10:03:44;;;;;;;11.40;7.30;;;;;18.60;101822.00;;;;10522652;28;20204;-75
2021/04/18 10:08:57;;;;;;;13.02;7.75;;;;;18.50;101815.00;;;;10519876;28;20229;-75
2021/04/18 10:13:59;;;;;;;12.00;7.68;;;;;18.90;101809.00;;;;10519605;28;20209;-75
2021/04/18 10:19:13;;;;;;;12.70;7.82;;;;;18.90;101791.00;;;;10468593;28;20258;-75
2021/04/18 10:24:36;;;;;;;11.60;7.10;;;;;18.80;101797.00;;;;10509450;28;20643;-75
2021/04/18 10:29:50;;;;;;;10.27;7.43;;;;;18.70;101792.00;;;;10516655;28;20193;-75
2021/04/18 10:34:53;;;;;;;12.75;7.45;;;;;18.90;101796.00;;;;10504212;28;20185;-75
2021/04/18 10:39:59;;;;;;;10.88;7.13;;;;;19.30;101789.00;;;;10549974;28;20288;-75
2021/04/18 10:45:01;;;;;;;14.65;7.75;;;;;19.20;101798.00;;;;10521729;28;20213;-75
2021/04/18 10:50:04;;;;;;;11.35;8.02;;;;;19.60;101784.00;;;;10532394;28;20591;-75
2021/04/18 10:55:06;;;;;;;10.85;8.13;;;;;19.70;101785.00;;;;10516333;28;20188;-75
2021/04/18 11:00:08;;;;;;;14.40;8.38;;;;;19.70;101780.00;;;;10525446;28;20201;-75
2021/04/18 11:05:11;;;;;;;14.75;8.35;;;;;19.10;101770.00;;;;10525426;28;20236;-75
2021/04/18 11:10:19;;;;;;;13.88;7.60;;;;;19.30;101777.00;;;;10485841;28;20283;-75
2021/04/18 11:15:20;;;;;;;9.15;7.10;;;;;19.80;101783.00;;;;10499309;28;20571;-74
2021/04/18 11:20:22;;;;;;;9.35;6.50;;;;;19.90;101767.00;;;;10550284;28;20609;-73
2021/04/18 11:25:24;;;;;;;7.70;5.93;;;;;20.00;101757.00;;;;10570511;28;20219;-73
2021/04/18 11:30:26;;;;;;;10.73;6.68;;;;;19.30;101760.00;;;;10548864;28;20229;-73
2021/04/18 11:35:27;;;;;;;11.15;7.28;;;;;19.00;101761.00;;;;10524126;28;20635;-73
2021/04/18 11:40:30;;;;;;;11.40;6.82;;;;;19.20;101764.00;;;;10482445;28;20255;-73
2021/04/18 11:45:42;;;;;;;7.30;5.72;;;;;19.40;101752.00;;;;10481329;28;20267;-73
2021/04/18 11:50:44;;;;;;;10.25;6.78;;;;;19.20;101756.00;;;;10488776;28;20210;-73
2021/04/18 11:55:46;;;;;;;11.93;6.97;;;;;19.80;101763.00;;;;10521635;28;20540;-73
2021/04/18 12:00:47;;;;;;;10.68;7.15;;;;;20.30;101748.00;;;;10544630;28;20177;-73
2021/04/18 12:05:48;;;;;;;10.38;6.68;;;;;19.80;101747.00;;;;10538261;28;20258;-72
2021/04/18 12:10:51;;;;;;;10.85;6.82;;;;;19.90;101740.00;;;;10476374;28;20209;-72
2021/04/18 12:15:52;;;;;;;8.95;7.25;;;;;20.40;101733.00;;;;10509308;28;20181;-72
2021/04/18 12:20:54;;;;;;;12.93;8.68;;;;;20.40;101742.00;;;;10514996;28;20571;-72
2021/04/18 12:25:55;;;;;;;11.10;7.57;;;;;20.50;101739.00;;;;10504065;28;20288;-73
2021/04/18 12:30:57;;;;;;;12.65;7.20;;;;;20.50;101733.00;;;;10505763;28;20276;-73
2021/04/18 12:35:59;;;;;;;9.60;7.25;;;;;20.60;101733.00;;;;10500143;28;20193;-73
2021/04/18 12:41:00;;;;;;;11.90;6.82;;;;;20.40;101734.00;;;;10488498;28;20189;-73
2021/04/18 12:46:02;;;;;;;12.90;7.03;;;;;20.80;101727.00;;;;10523762;28;20220;-74
2021/04/18 12:51:06;;;;;;;11.38;7.50;;;;;21.40;101715.00;;;;10489242;28;20193;-73
2021/04/18 12:56:08;;;;;;;11.15;7.22;;;;;21.30;101711.00;;;;10520683;28;20247;-73
2021/04/18 13:01:09;;;;;;;11.70;7.63;;;;;20.90;101711.00;;;;10517417;28;20196;-74
2021/04/18 13:06:11;;;;;;;9.63;7.15;;;;;21.00;101715.00;;;;10538646;28;20628;-73
2021/04/18 13:11:12;;;;;;;8.55;7.30;;;;;21.00;101714.00;;;;10533536;28;20251;-73
2021/04/18 13:16:13;;;;;;;12.85;7.60;;;;;21.30;101717.00;;;;10516005;28;20632;-73
2021/04/18 13:21:16;;;;;;;9.65;6.60;;;;;21.30;101716.00;;;;10542046;28;20239;-73
2021/04/18 13:26:17;;;;;;;10.77;7.07;;;;;21.10;101708.00;;;;10510744;28;20229;-73
2021/04/18 13:31:19;;;;;;;12.85;7.40;;;;;21.60;101710.00;;;;10527128;28;20201;-73
2021/04/18 13:36:20;;;;;;;10.90;7.10;;;;;22.90;101708.00;;;;10473358;28;20660;-73
2021/04/18 13:41:21;;;;;;;9.43;6.22;;;;;24.00;101700.00;;;;10528938;28;20248;-73
2021/04/18 13:46:23;;;;;;;9.13;6.00;;;;;24.80;101691.00;;;;10527969;28;20239;-73
2021/04/18 13:51:24;;;;;;;8.20;6.00;;;;;25.50;101685.00;;;;10493009;28;20197;-73
2021/04/18 13:56:25;;;;;;;8.00;6.38;;;;;25.80;101684.00;;;;10526307;28;20204;-73
2021/04/18 14:01:27;;;;;;;13.68;5.82;;;;;26.60;101687.00;;;;10521613;28;20200;-73
2021/04/18 14:06:29;;;;;;;9.23;5.50;;;;;27.20;101681.00;;;;10492005;28;20208;-73
2021/04/18 14:11:32;;;;;;;8.45;5.72;;;;;26.20;101676.00;;;;10536021;28;20197;-73
2021/04/18 14:16:33;;;;;;;9.75;5.43;;;;;25.60;101674.00;;;;10513320;28;20182;-73
2021/04/18 14:21:35;;;;;;;7.68;5.22;;;;;27.30;101653.00;;;;10474706;28;20193;-73
2021/04/18 14:26:37;;;;;;;10.02;5.40;;;;;27.70;101660.00;;;;10542544;28;20250;-72
2021/04/18 14:31:39;;;;;;;6.20;5.00;;;;;27.80;101651.00;;;;10537598;28;20197;-74
2021/04/18 14:36:40;;;;;;;9.77;5.38;;;;;28.40;101652.00;;;;10522373;28;20200;-73
2021/04/18 14:41:42;;;;;;;11.73;5.78;;;;;29.10;101651.00;;;;10520140;28;20193;-73
2021/04/18 14:46:43;;;;;;;8.07;5.20;;;;;29.60;101646.00;;;;10526057;28;20229;-73
2021/04/18 14:51:51;;;;;;;10.57;5.18;;;;;29.30;101652.00;;;;10518373;28;20544;-73
2021/04/18 14:56:54;;;;;;;10.35;5.82;;;;;30.10;101634.00;;;;10537256;28;20193;-73
2021/04/18 15:01:56;;;;;;;8.70;5.28;;;;;29.30;101632.00;;;;10505421;28;20213;-73
2021/04/18 15:06:58;;;;;;;10.38;5.30;;;;;29.70;101624.00;;;;10533508;28;20244;-73
2021/04/18 15:11:59;;;;;;;10.30;5.65;;;;;25.90;101642.00;;;;10522066;28;20220;-73
2021/04/18 15:17:01;;;;;;;9.93;5.65;;;;;23.60;101641.00;;;;10494488;28;20260;-73
2021/04/18 15:22:02;;;;;;;8.18;5.70;;;;;21.30;101636.00;;;;10526750;28;20193;-74
2021/04/18 15:27:04;;;;;;;11.35;6.30;;;;;19.10;101638.00;;;;10534078;28;20250;-74
2021/04/18 15:32:15;;;;;;;11.07;5.78;;;;;18.50;101639.00;;;;10498798;28;20193;-74
2021/04/18 15:37:17;;;;;;;10.75;6.05;;;;;18.70;101637.00;;;;10554631;28;20188;-73
2021/04/18 15:42:19;;;;;;;9.15;5.55;;;;;18.70;101628.00;;;;10485419;28;20205;-73
2021/04/18 15:47:21;;;;;;;9.02;5.35;;;;;21.20;101632.00;;;;10547601;28;20241;-72
2021/04/18 15:52:23;;;;;;;8.68;6.07;;;;;20.10;101639.00;;;;10533279;28;20197;-72
2021/04/18 15:57:24;;;;;;;12.23;6.03;;;;;18.40;101627.00;;;;10534498;28;20724;-72
2021/04/18 16:02:42;;;;;;;10.88;5.45;;;;;17.90;101635.00;;;;10535453;28;20562;-73
2021/04/18 16:07:44;;;;;;;13.48;5.25;;;;;18.80;101635.00;;;;10538868;28;20247;-73
2021/04/18 16:12:46;;;;;;;9.15;5.60;;;;;19.00;101642.00;;;;10532024;28;20197;-73
2021/04/18 16:17:47;;;;;;;10.07;5.30;;;;;18.00;101646.00;;;;10510934;28;20590;-74
2021/04/18 16:22:48;;;;;;;8.23;5.43;;;;;17.00;101653.00;;;;10535549;28;20310;-73
2021/04/18 16:27:50;;;;;;;9.30;5.43;;;;;16.50;101663.00;;;;10508215;28;20255;-74
2021/04/18 16:32:51;;;;;;;9.50;5.30;;;;;16.20;101653.00;;;;10522347;28;20224;-73
2021/04/18 16:37:57;;;;;;;13.47;6.23;;;;;16.00;101660.00;;;;10519167;28;20181;-74
2021/04/18 16:43:00;;;;;;;8.23;5.37;;;;;15.80;101669.00;;;;10499255;28;20205;-74
2021/04/18 16:48:02;;;;;;;11.90;6.03;;;;;15.70;101668.00;;;;10522607;28;20241;-74
2021/04/18 16:53:04;;;;;;;10.10;5.43;;;;;15.50;101659.00;;;;10442464;28;20656;-74
2021/04/18 16:58:05;;;;;;;9.23;5.87;;;;;15.30;101675.00;;;;10458065;28;20198;-73
2021/04/18 17:03:07;;;;;;;13.70;5.97;;;;;15.10;101673.00;;;;10475999;28;20185;-74
2021/04/18 17:08:12;;;;;;;9.57;5.43;;;;;14.90;101669.00;;;;10480248;28;20225;-74
2021/04/18 17:13:14;;;;;;;8.57;6.00;;;;;14.90;101666.00;;;;10466165;28;20556;-74
2021/04/18 17:18:15;;;;;;;8.83;5.93;;;;;14.80;101669.00;;;;10465778;28;20202;-74
2021/04/18 17:23:17;;;;;;;10.87;6.00;;;;;14.60;101669.00;;;;10446048;28;20603;-73
2021/04/18 17:28:28;;;;;;;14.03;5.50;;;;;14.40;101682.00;;;;10466141;28;20269;-74
2021/04/18 17:33:32;;;;;;;11.53;6.03;;;;;14.20;101674.00;;;;10468136;28;20207;-74
2021/04/18 17:38:35;;;;;;;10.27;5.87;;;;;14.00;101673.00;;;;10488543;28;20263;-74
2021/04/18 17:43:38;;;;;;;14.97;5.90;;;;;13.80;101676.00;;;;10492867;28;20201;-74
2021/04/18 17:48:39;;;;;;;11.10;5.17;;;;;13.60;101671.00;;;;10539535;28;20217;-73
2021/04/18 17:53:42;;;;;;;11.00;5.80;;;;;13.40;101677.00;;;;10488910;28;20199;-74
2021/04/18 17:58:50;;;;;;;10.07;5.90;;;;;13.20;101677.00;;;;10473990;28;20202;-74
2021/04/18 18:03:52;;;;;;;13.57;6.47;;;;;13.00;101678.00;;;;10481428;28;20204;-73
2021/04/18 18:08:54;;;;;;;8.73;5.77;;;;;12.80;101683.00;;;;10461241;28;20225;-74
2021/04/18 18:13:55;;;;;;;9.30;6.17;;;;;12.60;101682.00;;;;10478758;28;20766;-73
2021/04/18 18:18:57;;;;;;;11.73;7.43;;;;;12.40;101682.00;;;;10495731;28;20760;-74
2021/04/18 18:23:58;;;;;;;11.80;6.50;;;;;12.20;101691.00;;;;10468754;28;20193;-74
2021/04/18 18:28:59;;;;;;;11.27;7.53;;;;;12.00;101691.00;;;;10477716;28;20213;-71
2021/04/18 18:34:01;;;;;;;12.80;6.97;;;;;11.70;101696.00;;;;10481452;28;20193;-73
2021/04/18 18:39:06;;;;;;;10.70;7.07;;;;;11.50;101697.00;;;;10461097;28;20231;-74
2021/04/18 18:44:07;;;;;;;12.27;7.17;;;;;11.30;101699.00;;;;10494545;28;20280;-74
2021/04/18 18:49:08;;;;;;;12.27;7.30;;;;;11.10;101689.00;;;;10494287;28;20232;-75
2021/04/18 18:54:10;;;;;;;13.57;8.07;;;;;10.90;101708.00;;;;10496466;28;20197;-74
2021/04/18 18:59:11;;;;;;;18.00;8.40;;;;;10.80;101715.00;;;;10494784;28;20715;-74
2021/04/18 19:04:22;;;;;;;14.30;8.27;;;;;10.60;101715.00;;;;10444269;28;20213;-74
2021/04/18 19:09:28;;;;;;;15.13;8.70;;;;;10.50;101718.00;;;;10509121;28;20316;-75
2021/04/18 19:14:30;;;;;;;11.90;8.23;;;;;10.40;101723.00;;;;10458001;28;20366;-75
2021/04/18 19:19:31;;;;;;;13.37;8.93;;;;;10.20;101722.00;;;;10463569;28;20201;-75
2021/04/18 19:24:32;;;;;;;17.50;10.03;;;;;10.10;101729.00;;;;10509211;28;20254;-75
2021/04/18 19:29:35;;;;;;;18.73;10.60;;;;;9.90;101733.00;;;;10430180;28;20214;-75
2021/04/18 19:34:36;;;;;;;22.03;9.90;;;;;9.80;101731.00;;;;10451538;28;20236;-75
2021/04/18 19:39:38;;;;;;;14.73;11.00;;;;;9.70;101747.00;;;;10459610;28;21035;-75
2021/04/18 19:44:40;;;;;;;18.13;10.03;;;;;9.50;101744.00;;;;10473208;28;20203;-74
2021/04/18 19:49:41;;;;;;;17.33;10.60;;;;;9.40;101751.00;;;;10464090;28;20817;-75
2021/04/18 19:54:43;;;;;;;16.30;10.53;;;;;9.30;101749.00;;;;10474603;28;20648;-75
2021/04/18 19:59:45;;;;;;;20.70;10.67;;;;;9.20;101758.00;;;;10436392;28;20225;-75
2021/04/18 20:04:46;;;;;;;20.80;11.40;;;;;9.10;101761.00;;;;10457303;28;20280;-75
2021/04/18 20:09:47;;;;;;;17.07;11.93;;;;;9.00;101756.00;;;;10460209;28;20197;-74
2021/04/18 20:14:49;;;;;;;19.87;11.70;;;;;8.90;101755.00;;;;10475311;28;20315;-74
2021/04/18 20:19:50;;;;;;;17.00;12.03;;;;;8.80;101768.00;;;;10485708;28;20248;-75
2021/04/18 20:24:54;;;;;;;21.27;13.43;;;;;8.70;101766.00;;;;10474359;28;20197;-75
2021/04/18 20:29:55;;;;;;;18.50;13.13;;;;;8.50;101777.00;;;;10450739;28;20198;-75
2021/04/18 20:34:57;;;;;;;19.87;13.37;;;;;8.40;101763.00;;;;10471873;28;20273;-75
2021/04/18 20:39:58;;;;;;;26.77;15.33;;;;;8.30;101767.00;;;;10458874;28;20676;-75
2021/04/18 20:45:13;;;;;;;24.23;14.93;;;;;8.20;101772.00;;;;10478207;28;20227;-75
2021/04/18 20:50:14;;;;;;;25.47;14.37;;;;;8.10;101772.00;;;;10449813;28;20213;-75
2021/04/18 20:55:15;;;;;;;27.33;16.57;;;;;8.00;101774.00;;;;10457633;28;20212;-75
2021/04/18 21:00:24;;;;;;;25.67;16.03;;;;;7.90;101766.00;;;;10478408;28;20201;-75
2021/04/18 21:05:26;;;;;;;26.40;16.00;;;;;7.70;101767.00;;;;10491191;28;20301;-75
2021/04/18 21:10:27;;;;;;;25.63;16.90;;;;;7.60;101771.00;;;;10501667;28;20603;-75
2021/04/18 21:15:36;;;;;;;26.53;17.40;;;;;7.50;101770.00;;;;10458768;28;20201;-76
2021/04/18 21:20:38;;;;;;;28.30;18.43;;;;;7.50;101777.00;;;;10451529;28;20656;-75
2021/04/18 21:25:40;;;;;;;29.40;17.40;;;;;7.40;101774.00;;;;10505815;28;20291;-75
2021/04/18 21:30:41;;;;;;;32.67;18.60;;;;;7.30;101762.00;;;;10432047;28;20664;-75
2021/04/18 21:35:42;;;;;;;30.23;18.90;;;;;7.20;101776.00;;;;10490281;28;20204;-74
2021/04/18 21:40:45;;;;;;;33.10;18.00;;;;;7.10;101778.00;;;;10428322;28;20198;-75
2021/04/18 21:45:47;;;;;;;32.17;19.40;;;;;7.00;101778.00;;;;10506841;28;20627;-75
2021/04/18 21:50:50;;;;;;;35.70;22.00;;;;;7.00;101772.00;;;;10449019;28;20222;-75
2021/04/18 21:55:51;;;;;;;30.80;19.60;;;;;6.90;101767.00;;;;10441852;28;20542;-75
2021/04/18 22:00:52;;;;;;;32.90;19.53;;;;;6.80;101777.00;;;;10460144;28;20600;-75
2021/04/18 22:05:55;;;;;;;36.80;21.60;;;;;6.80;101773.00;;;;10474402;28;20568;-75
2021/04/18 22:10:57;;;;;;;34.77;21.37;;;;;6.70;101762.00;;;;10444343;28;20256;-75
2021/04/18 22:15:58;;;;;;;41.97;23.10;;;;;6.60;101759.00;;;;10477713;28;20272;-75
2021/04/18 22:21:00;;;;;;;35.83;22.00;;;;;6.60;101768.00;;;;10494989;28;20209;-75
2021/04/18 22:26:02;;;;;;;43.70;22.40;;;;;6.50;101756.00;;;;10492623;28;20778;-75
2021/04/18 22:31:03;;;;;;;38.43;22.87;;;;;6.40;101757.00;;;;10478254;28;20722;-75
2021/04/18 22:36:05;;;;;;;37.83;23.47;;;;;6.40;101755.00;;;;10460737;28;20267;-75
2021/04/18 22:41:07;;;;;;;40.73;23.37;;;;;6.30;101738.00;;;;10460692;28;20591;-75
2021/04/18 22:46:09;;;;;;;38.80;23.47;;;;;6.20;101748.00;;;;10477755;28;20244;-75
2021/04/18 22:51:10;;;;;;;43.13;23.87;;;;;6.20;101741.00;;;;10460859;28;20201;-75
2021/04/18 22:56:11;;;;;;;42.87;24.37;;;;;6.20;101743.00;;;;10428470;28;20263;-75
2021/04/18 23:01:13;;;;;;;41.67;25.50;;;;;6.10;101745.00;;;;10460054;28;20218;-74
2021/04/18 23:06:14;;;;;;;42.67;24.50;;;;;6.10;101742.00;;;;10477044;28;20275;-75
2021/04/18 23:11:16;;;;;;;41.67;23.63;;;;;6.00;101746.00;;;;10459353;28;20201;-75
2021/04/18 23:16:17;;;;;;;45.90;25.93;;;;;6.00;101751.00;;;;10475593;28;20204;-75
2021/04/18 23:21:19;;;;;;;42.13;25.97;;;;;6.00;101744.00;;;;10476404;28;20193;-75
2021/04/18 23:26:20;;;;;;;47.60;28.17;;;;;5.90;101747.00;;;;10476620;28;20260;-74
2021/04/18 23:31:22;;;;;;;39.13;25.50;;;;;5.90;101751.00;;;;10475018;28;20239;-75
2021/04/18 23:36:23;;;;;;;44.57;25.83;;;;;5.80;101739.00;;;;10476635;28;20288;-75
2021/04/18 23:41:24;;;;;;;44.13;26.63;;;;;5.80;101745.00;;;;10475022;28;20236;-74
2021/04/18 23:46:26;;;;;;;49.10;27.47;;;;;5.80;101743.00;;;;10458909;28;20263;-75
2021/04/18 23:51:28;;;;;;;57.03;27.57;;;;;5.70;101733.00;;;;10490964;28;20637;-75
2021/04/18 23:56:29;;;;;;;42.13;25.43;;;;;5.60;101743.00;;;;10457140;28;20604;-74
